AirNav   Air Wisconsin Up To $57,000 Bonus
 
 1811 users online  

96G Cowley Field Airport
Sandusky, Michigan, USA

GOING TO SANDUSKY?


FAA INFORMATION EFFECTIVE 07 NOVEMBER 2019

Location

FAA Identifier: 96G
Lat/Long: 43-22-32.6000N 082-49-07.8000W
43-22.543333N 082-49.130000W
43.3757222,-82.8188333
(estimated)
Elevation: 770 ft. / 235 m (estimated)
Variation: 07W (1985)
From city: 3 miles S of SANDUSKY, MI
Time zone: UTC -5 (UTC -4 during Daylight Saving Time)
Zip code: 48471

Airport Operations

Airport use: Open to the public
Activation date: 04/1971
Control tower: no
ARTCC: CLEVELAND CENTER
FSS: LANSING FLIGHT SERVICE STATION
NOTAMs facility: LAN (NOTAM-D service available)
Attendance: 
Wind indicator: yes
Segmented circle: no

Airport Communications

CTAF: 122.9

Airport Services

Parking: tiedowns
Airframe service: NONE
Powerplant service: NONE
Bottled oxygen: NONE
Bulk oxygen: NONE

Runway Information

Runway 9/27

Dimensions: 2600 x 60 ft. / 792 x 18 m
Surface: turf, in good condition
Runway edge markings: RWY MKD WITH 3 FT YELLOW CONES.
RUNWAY 9  RUNWAY 27
Latitude: 43-22.536667N43-22.550000N
Longitude: 082-49.423333W082-48.836667W
Elevation: 770.0 ft.768.0 ft.
Traffic pattern: leftleft
Runway heading: 095 magnetic, 088 true275 magnetic, 268 true
Runway end identifier lights: nono
Obstructions: 63 ft. tree, 1089 ft. from runway, 17:1 slope to clear150 ft. pline, 5500 ft. from runway, 36:1 slope to clear

Airport Ownership and Management from official FAA records

Ownership: Privately-owned
Owner: DALE COWLEY
1515 SO SANDUSKY RD
SANDUSKY, MI 48471
Phone 810-837-0111
Manager: DALE COWLEY
1515 SO SANDUSKY RD
SANDUSKY, MI 48471
Phone 810-837-0111

Airport Operational Statistics

Aircraft based on the field: 1
Single engine airplanes: 1
    
Aircraft operations: 60/year *
83% transient general aviation
17% local general aviation
* for 12-month period ending 31 December 2018

Additional Remarks

DEER & TURKEYS ON & INVOF ARPT.
BE ALERT FOR CLOSE PROXIMITY OF POWER POLES ALONG TWY ON W END.
FOR CD CTC CLEVELAND ARTCC AT 440-774-0224.
SNOW REMOVAL IREG, TO VFY COND CALL 810-837-0111.

Instrument Procedures

There are no published instrument procedures at 96G.

Some nearby airports with instrument procedures:

77G - Marlette Township Airport (12 nm W)
KBAX - Huron County Memorial Airport (25 nm N)
D95 - Dupont-Lapeer Airport (27 nm SW)
KCFS - Tuscola Area Airport (28 nm W)
KPHN - St Clair County International Airport (31 nm SE)
 
Loc | Ops | Rwys | IFR | FBO | Links
Com | Nav | Svcs | Stats | Notes
Area around 96G (Cowley Field Airport)
 
Road maps at: MapQuest Bing Google
 
Aerial photo
WARNING: Photo may not be current or correct
Aerial photo of 96G (Cowley Field Airport)
Photo by Roy Carlson, Plainwell, MI

Do you have a better or more recent aerial photo of Cowley Field Airport that you would like to share? If so, please send us your photo.

 
Sectional chart

 
Airport distance calculator
Flying to Cowley Field Airport? Find the distance to fly.

From to 96G

Sunrise and sunset
Times for 20-Nov-2019
 Local
(UTC-5)
 Zulu
(UTC)
Morning civil twilight07:0112:01
Sunrise07:3212:32
Sunset17:0222:02
Evening civil twilight17:3322:33

Current date and time
Zulu (UTC)  20-Nov-2019 19:48:05
Local (UTC-5)  20-Nov-2019 14:48:05
 
METAR
KBAX 
25nm N 
201935Z AUTO 00000KT 10SM CLR 05/01 A3016 RMK AO2 T00450005
KD95 
27nm SW 
201935Z AUTO 27004KT 10SM SCT021 06/00 A3018 RMK AO2 T00611004
KCFS 
28nm W 
201936Z AUTO 23003KT 7SM CLR 06/00 A3016 RMK AO2 T00640003
KPHN 
31nm SE 
201935Z AUTO 00000KT 10SM SCT032 08/M00 A3018 RMK AO2
CYZR 
32nm SE 
201900Z AUTO 03005KT 340V050 9SM OVC031 06/01 A3017 RMK RVR MISG SLP222
KP58 
38nm N 
201851Z AUTO VRB06KT 06/M01 A3015 RMK AO1 SLP218 T00561011
KMTC 
46nm S 
201856Z 26007KT 7SM SCT026 07/02 A3017 RMK AO2A SLP226 T00650024
KHYX 
46nm W 
201936Z AUTO 23006KT 10SM SCT033 06/00 A3017 RMK AO2
KFNT 
48nm SW 
201939Z 28005KT 10SM OVC028 07/01 A3018 RMK AO2 T00720011
KPTK 
50nm SW 
201853Z 29005KT 7SM OVC023 05/01 A3017 RMK AO2 SLP224 BINOVC T00500006
TAF
CYZR 
32nm SE 
201338Z 2014/2102 30006KT P6SM FEW020 BKN040 TEMPO 2014/2016 5SM BR BKN020 FM201600 30006KT P6SM SCT020 TEMPO 2016/2022 BKN020 BECMG 2018/2020 23005KT FM202200 21005KT P6SM BKN025 TEMPO 2022/2102 BKN020 RMK FCST BASED ON AUTO OBS. NXT FCST BY 202000Z
NOTAMs
Click for the latest NOTAMs
NOTAMs are issued by the DoD/FAA and will open in a separate window not controlled by AirNav.

 

 
 

Would you like to see your business listed on this page?

 If your business provides an interesting product or service to pilots, flight crews, aircraft, or users of the Cowley Field Airport, you should consider listing it here.  To start the listing process, click on the button below
 
Add a business
 

Other Pages about Cowley Field Airport

Page from the Michigan Airport Directory (PDF)
 
Update a link
 
Copyright © AirNav, LLC. All rights reserved. Privacy Policy  Contact